sensor_id;sensor_type;location;lat;lon;timestamp;P1;durP1;ratioP1;P2;durP2;ratioP2
25359;SDS011;13311;51.386;0.016;2023-06-22T00:04:57;7.95;;;4.63;;
25359;SDS011;13311;51.386;0.016;2023-06-22T00:09:57;7.03;;;4.93;;
25359;SDS011;13311;51.386;0.016;2023-06-22T00:14:58;9.60;;;5.40;;
25359;SDS011;13311;51.386;0.016;2023-06-22T00:19:59;9.57;;;5.68;;
25359;SDS011;13311;51.386;0.016;2023-06-22T00:25:00;7.88;;;5.25;;
25359;SDS011;13311;51.386;0.016;2023-06-22T00:30:00;7.07;;;4.88;;
25359;SDS011;13311;51.386;0.016;2023-06-22T00:35:02;7.57;;;5.40;;
25359;SDS011;13311;51.386;0.016;2023-06-22T00:40:03;8.20;;;4.72;;
25359;SDS011;13311;51.386;0.016;2023-06-22T00:45:05;8.10;;;5.28;;
25359;SDS011;13311;51.386;0.016;2023-06-22T00:50:07;8.80;;;5.93;;
25359;SDS011;13311;51.386;0.016;2023-06-22T00:55:09;9.85;;;5.97;;
25359;SDS011;13311;51.386;0.016;2023-06-22T01:00:10;10.07;;;5.63;;
25359;SDS011;13311;51.386;0.016;2023-06-22T01:05:20;8.68;;;5.82;;
25359;SDS011;13311;51.386;0.016;2023-06-22T01:10:27;8.23;;;5.25;;
25359;SDS011;13311;51.386;0.016;2023-06-22T01:15:50;8.30;;;5.78;;
25359;SDS011;13311;51.386;0.016;2023-06-22T01:21:10;9.88;;;5.88;;
25359;SDS011;13311;51.386;0.016;2023-06-22T01:31:43;8.90;;;5.55;;
25359;SDS011;13311;51.386;0.016;2023-06-22T01:36:45;8.60;;;6.07;;
25359;SDS011;13311;51.386;0.016;2023-06-22T01:41:47;8.38;;;6.20;;
25359;SDS011;13311;51.386;0.016;2023-06-22T01:46:48;8.02;;;6.32;;
25359;SDS011;13311;51.386;0.016;2023-06-22T01:51:50;10.35;;;5.57;;
25359;SDS011;13311;51.386;0.016;2023-06-22T01:56:51;13.60;;;6.47;;
25359;SDS011;13311;51.386;0.016;2023-06-22T02:01:56;10.30;;;6.93;;
25359;SDS011;13311;51.386;0.016;2023-06-22T02:07:02;8.50;;;5.70;;
25359;SDS011;13311;51.386;0.016;2023-06-22T02:12:10;9.25;;;6.28;;
25359;SDS011;13311;51.386;0.016;2023-06-22T02:17:12;7.97;;;5.60;;
25359;SDS011;13311;51.386;0.016;2023-06-22T02:22:14;9.77;;;5.45;;
25359;SDS011;13311;51.386;0.016;2023-06-22T02:27:14;8.50;;;5.32;;
25359;SDS011;13311;51.386;0.016;2023-06-22T02:32:15;7.95;;;5.65;;
25359;SDS011;13311;51.386;0.016;2023-06-22T02:37:18;9.35;;;5.72;;
25359;SDS011;13311;51.386;0.016;2023-06-22T02:42:19;7.00;;;5.30;;
25359;SDS011;13311;51.386;0.016;2023-06-22T02:47:21;9.15;;;6.07;;
25359;SDS011;13311;51.386;0.016;2023-06-22T02:52:22;7.45;;;5.32;;
25359;SDS011;13311;51.386;0.016;2023-06-22T02:57:23;6.50;;;5.00;;
25359;SDS011;13311;51.386;0.016;2023-06-22T03:02:23;9.27;;;6.10;;
25359;SDS011;13311;51.386;0.016;2023-06-22T03:07:24;8.85;;;5.90;;
25359;SDS011;13311;51.386;0.016;2023-06-22T03:12:25;6.88;;;5.60;;
25359;SDS011;13311;51.386;0.016;2023-06-22T03:17:25;7.72;;;4.85;;
25359;SDS011;13311;51.386;0.016;2023-06-22T03:22:26;7.68;;;5.88;;
25359;SDS011;13311;51.386;0.016;2023-06-22T03:27:27;8.63;;;4.72;;
25359;SDS011;13311;51.386;0.016;2023-06-22T03:32:27;12.02;;;5.40;;
25359;SDS011;13311;51.386;0.016;2023-06-22T03:37:28;6.15;;;4.97;;
25359;SDS011;13311;51.386;0.016;2023-06-22T03:42:29;9.13;;;5.25;;
25359;SDS011;13311;51.386;0.016;2023-06-22T03:47:30;8.68;;;5.28;;
25359;SDS011;13311;51.386;0.016;2023-06-22T03:52:30;7.57;;;4.70;;
25359;SDS011;13311;51.386;0.016;2023-06-22T03:57:32;6.00;;;4.63;;
25359;SDS011;13311;51.386;0.016;2023-06-22T04:02:33;6.72;;;5.05;;
25359;SDS011;13311;51.386;0.016;2023-06-22T04:07:34;8.60;;;5.88;;
25359;SDS011;13311;51.386;0.016;2023-06-22T04:12:37;11.63;;;5.97;;
25359;SDS011;13311;51.386;0.016;2023-06-22T04:17:37;6.85;;;5.15;;
25359;SDS011;13311;51.386;0.016;2023-06-22T04:22:38;7.97;;;5.53;;
25359;SDS011;13311;51.386;0.016;2023-06-22T04:27:39;9.27;;;5.60;;
25359;SDS011;13311;51.386;0.016;2023-06-22T04:32:40;8.35;;;5.57;;
25359;SDS011;13311;51.386;0.016;2023-06-22T04:37:41;11.48;;;7.07;;
25359;SDS011;13311;51.386;0.016;2023-06-22T04:42:41;12.70;;;7.60;;
25359;SDS011;13311;51.386;0.016;2023-06-22T04:47:52;6.55;;;5.53;;
25359;SDS011;13311;51.386;0.016;2023-06-22T04:52:52;9.30;;;5.65;;
25359;SDS011;13311;51.386;0.016;2023-06-22T04:57:53;7.90;;;5.75;;
25359;SDS011;13311;51.386;0.016;2023-06-22T05:02:54;9.32;;;5.45;;
25359;SDS011;13311;51.386;0.016;2023-06-22T05:07:57;9.52;;;6.05;;
25359;SDS011;13311;51.386;0.016;2023-06-22T05:13:00;10.00;;;6.50;;
25359;SDS011;13311;51.386;0.016;2023-06-22T05:18:01;7.15;;;5.97;;
25359;SDS011;13311;51.386;0.016;2023-06-22T05:23:05;10.38;;;5.45;;
25359;SDS011;13311;51.386;0.016;2023-06-22T05:28:06;6.35;;;5.30;;
25359;SDS011;13311;51.386;0.016;2023-06-22T05:33:10;8.98;;;5.97;;
25359;SDS011;13311;51.386;0.016;2023-06-22T05:38:11;10.07;;;6.35;;
25359;SDS011;13311;51.386;0.016;2023-06-22T05:43:12;14.18;;;6.32;;
25359;SDS011;13311;51.386;0.016;2023-06-22T05:48:12;8.23;;;5.45;;
25359;SDS011;13311;51.386;0.016;2023-06-22T05:53:13;10.40;;;6.63;;
25359;SDS011;13311;51.386;0.016;2023-06-22T05:58:14;8.35;;;5.57;;
25359;SDS011;13311;51.386;0.016;2023-06-22T06:03:15;8.10;;;5.43;;
25359;SDS011;13311;51.386;0.016;2023-06-22T06:08:16;9.10;;;5.60;;
25359;SDS011;13311;51.386;0.016;2023-06-22T06:13:17;8.85;;;4.82;;
25359;SDS011;13311;51.386;0.016;2023-06-22T06:18:18;10.25;;;5.97;;
25359;SDS011;13311;51.386;0.016;2023-06-22T06:23:19;11.20;;;6.68;;
25359;SDS011;13311;51.386;0.016;2023-06-22T06:28:19;8.15;;;6.60;;
25359;SDS011;13311;51.386;0.016;2023-06-22T06:33:20;13.68;;;8.00;;
25359;SDS011;13311;51.386;0.016;2023-06-22T06:38:21;13.38;;;7.88;;
25359;SDS011;13311;51.386;0.016;2023-06-22T06:43:21;10.90;;;7.80;;
25359;SDS011;13311;51.386;0.016;2023-06-22T06:48:23;8.23;;;6.63;;
25359;SDS011;13311;51.386;0.016;2023-06-22T06:53:24;13.77;;;7.72;;
25359;SDS011;13311;51.386;0.016;2023-06-22T06:58:25;12.85;;;7.90;;
25359;SDS011;13311;51.386;0.016;2023-06-22T07:03:26;12.00;;;7.35;;
25359;SDS011;13311;51.386;0.016;2023-06-22T07:08:26;10.18;;;7.10;;
25359;SDS011;13311;51.386;0.016;2023-06-22T07:13:27;9.25;;;6.28;;
25359;SDS011;13311;51.386;0.016;2023-06-22T07:18:28;10.63;;;6.72;;
25359;SDS011;13311;51.386;0.016;2023-06-22T07:23:29;7.28;;;5.30;;
25359;SDS011;13311;51.386;0.016;2023-06-22T07:28:30;8.60;;;5.82;;
25359;SDS011;13311;51.386;0.016;2023-06-22T07:33:36;5.17;;;4.60;;
25359;SDS011;13311;51.386;0.016;2023-06-22T07:38:37;8.30;;;6.97;;
25359;SDS011;13311;51.386;0.016;2023-06-22T07:43:38;9.77;;;6.28;;
25359;SDS011;13311;51.386;0.016;2023-06-22T07:48:39;10.32;;;6.80;;
25359;SDS011;13311;51.386;0.016;2023-06-22T07:53:42;9.98;;;6.32;;
25359;SDS011;13311;51.386;0.016;2023-06-22T07:58:44;9.43;;;5.40;;
25359;SDS011;13311;51.386;0.016;2023-06-22T08:03:48;5.72;;;4.45;;
25359;SDS011;13311;51.386;0.016;2023-06-22T08:08:49;7.28;;;5.60;;
25359;SDS011;13311;51.386;0.016;2023-06-22T08:13:52;5.53;;;4.28;;
25359;SDS011;13311;51.386;0.016;2023-06-22T08:18:55;6.47;;;5.07;;
25359;SDS011;13311;51.386;0.016;2023-06-22T08:23:56;7.93;;;4.90;;
25359;SDS011;13311;51.386;0.016;2023-06-22T08:28:57;6.38;;;4.65;;
25359;SDS011;13311;51.386;0.016;2023-06-22T08:33:57;11.07;;;5.53;;
25359;SDS011;13311;51.386;0.016;2023-06-22T08:38:58;8.38;;;5.82;;
25359;SDS011;13311;51.386;0.016;2023-06-22T08:44:01;6.15;;;4.95;;
25359;SDS011;13311;51.386;0.016;2023-06-22T08:49:02;8.20;;;5.15;;
25359;SDS011;13311;51.386;0.016;2023-06-22T08:54:05;8.13;;;4.68;;
25359;SDS011;13311;51.386;0.016;2023-06-22T08:59:06;6.32;;;4.32;;
25359;SDS011;13311;51.386;0.016;2023-06-22T09:04:07;9.18;;;4.80;;
25359;SDS011;13311;51.386;0.016;2023-06-22T09:09:09;7.70;;;4.10;;
25359;SDS011;13311;51.386;0.016;2023-06-22T09:14:10;5.55;;;4.28;;
25359;SDS011;13311;51.386;0.016;2023-06-22T09:19:11;4.80;;;4.28;;
25359;SDS011;13311;51.386;0.016;2023-06-22T09:24:12;5.55;;;3.72;;
25359;SDS011;13311;51.386;0.016;2023-06-22T09:29:12;5.20;;;4.70;;
25359;SDS011;13311;51.386;0.016;2023-06-22T09:34:13;5.97;;;4.03;;
25359;SDS011;13311;51.386;0.016;2023-06-22T09:39:14;8.57;;;5.45;;
25359;SDS011;13311;51.386;0.016;2023-06-22T09:44:15;6.10;;;4.78;;
25359;SDS011;13311;51.386;0.016;2023-06-22T09:49:15;4.57;;;3.83;;
25359;SDS011;13311;51.386;0.016;2023-06-22T09:54:16;6.63;;;4.63;;
25359;SDS011;13311;51.386;0.016;2023-06-22T09:59:17;6.03;;;4.50;;
25359;SDS011;13311;51.386;0.016;2023-06-22T10:04:18;5.25;;;4.47;;
25359;SDS011;13311;51.386;0.016;2023-06-22T10:09:18;6.72;;;4.20;;
25359;SDS011;13311;51.386;0.016;2023-06-22T10:14:19;6.25;;;4.90;;
25359;SDS011;13311;51.386;0.016;2023-06-22T10:19:20;8.38;;;4.50;;
25359;SDS011;13311;51.386;0.016;2023-06-22T10:24:21;4.90;;;3.97;;
25359;SDS011;13311;51.386;0.016;2023-06-22T10:29:21;4.95;;;3.78;;
25359;SDS011;13311;51.386;0.016;2023-06-22T10:34:22;9.45;;;3.85;;
25359;SDS011;13311;51.386;0.016;2023-06-22T10:39:23;5.30;;;4.45;;
25359;SDS011;13311;51.386;0.016;2023-06-22T10:44:23;8.55;;;4.60;;
25359;SDS011;13311;51.386;0.016;2023-06-22T10:49:24;8.18;;;3.83;;
25359;SDS011;13311;51.386;0.016;2023-06-22T10:54:24;4.43;;;3.08;;
25359;SDS011;13311;51.386;0.016;2023-06-22T10:59:25;9.25;;;3.85;;
25359;SDS011;13311;51.386;0.016;2023-06-22T11:04:27;3.53;;;2.97;;
25359;SDS011;13311;51.386;0.016;2023-06-22T11:09:27;3.08;;;2.47;;
25359;SDS011;13311;51.386;0.016;2023-06-22T11:14:28;4.40;;;3.20;;
25359;SDS011;13311;51.386;0.016;2023-06-22T11:19:29;5.70;;;3.08;;
25359;SDS011;13311;51.386;0.016;2023-06-22T11:24:29;8.77;;;3.70;;
25359;SDS011;13311;51.386;0.016;2023-06-22T11:29:30;2.72;;;2.47;;
25359;SDS011;13311;51.386;0.016;2023-06-22T11:34:31;6.70;;;4.18;;
25359;SDS011;13311;51.386;0.016;2023-06-22T11:39:31;4.80;;;4.00;;
25359;SDS011;13311;51.386;0.016;2023-06-22T11:44:32;4.90;;;3.22;;
25359;SDS011;13311;51.386;0.016;2023-06-22T11:49:33;7.82;;;4.07;;
25359;SDS011;13311;51.386;0.016;2023-06-22T11:54:33;5.05;;;2.95;;
25359;SDS011;13311;51.386;0.016;2023-06-22T11:59:34;4.82;;;3.58;;
25359;SDS011;13311;51.386;0.016;2023-06-22T12:04:35;5.93;;;3.08;;
25359;SDS011;13311;51.386;0.016;2023-06-22T12:09:36;9.60;;;3.17;;
25359;SDS011;13311;51.386;0.016;2023-06-22T12:14:37;3.08;;;2.70;;
25359;SDS011;13311;51.386;0.016;2023-06-22T12:19:37;4.68;;;3.20;;
25359;SDS011;13311;51.386;0.016;2023-06-22T12:24:38;4.00;;;3.45;;
25359;SDS011;13311;51.386;0.016;2023-06-22T12:29:39;8.23;;;2.70;;
25359;SDS011;13311;51.386;0.016;2023-06-22T12:34:41;3.60;;;3.10;;
25359;SDS011;13311;51.386;0.016;2023-06-22T12:39:43;5.72;;;2.95;;
25359;SDS011;13311;51.386;0.016;2023-06-22T12:44:44;6.53;;;3.30;;
25359;SDS011;13311;51.386;0.016;2023-06-22T12:49:45;4.57;;;2.80;;
25359;SDS011;13311;51.386;0.016;2023-06-22T12:54:46;3.08;;;2.72;;
25359;SDS011;13311;51.386;0.016;2023-06-22T12:59:46;2.80;;;2.38;;
25359;SDS011;13311;51.386;0.016;2023-06-22T13:04:47;6.50;;;2.88;;
25359;SDS011;13311;51.386;0.016;2023-06-22T13:09:48;3.70;;;2.83;;
25359;SDS011;13311;51.386;0.016;2023-06-22T13:14:51;5.43;;;3.75;;
25359;SDS011;13311;51.386;0.016;2023-06-22T13:19:52;3.63;;;2.60;;
25359;SDS011;13311;51.386;0.016;2023-06-22T13:24:52;3.40;;;2.88;;
25359;SDS011;13311;51.386;0.016;2023-06-22T13:29:53;3.83;;;3.20;;
25359;SDS011;13311;51.386;0.016;2023-06-22T13:34:54;2.72;;;2.53;;
25359;SDS011;13311;51.386;0.016;2023-06-22T13:39:55;2.65;;;2.25;;
25359;SDS011;13311;51.386;0.016;2023-06-22T13:44:56;4.20;;;2.80;;
25359;SDS011;13311;51.386;0.016;2023-06-22T13:49:56;2.90;;;2.50;;
25359;SDS011;13311;51.386;0.016;2023-06-22T13:54:57;3.15;;;2.58;;
25359;SDS011;13311;51.386;0.016;2023-06-22T13:59:58;3.30;;;2.58;;
25359;SDS011;13311;51.386;0.016;2023-06-22T14:04:59;2.80;;;2.22;;
25359;SDS011;13311;51.386;0.016;2023-06-22T14:10:00;6.38;;;3.03;;
25359;SDS011;13311;51.386;0.016;2023-06-22T14:15:01;3.35;;;2.67;;
25359;SDS011;13311;51.386;0.016;2023-06-22T14:20:02;8.13;;;3.92;;
25359;SDS011;13311;51.386;0.016;2023-06-22T14:25:05;6.20;;;2.78;;
25359;SDS011;13311;51.386;0.016;2023-06-22T14:30:06;5.25;;;2.85;;
25359;SDS011;13311;51.386;0.016;2023-06-22T14:35:08;4.30;;;2.88;;
25359;SDS011;13311;51.386;0.016;2023-06-22T14:40:08;5.50;;;2.92;;
25359;SDS011;13311;51.386;0.016;2023-06-22T14:45:10;4.25;;;2.85;;
25359;SDS011;13311;51.386;0.016;2023-06-22T14:50:11;2.75;;;2.10;;
25359;SDS011;13311;51.386;0.016;2023-06-22T14:55:11;2.67;;;2.30;;
25359;SDS011;13311;51.386;0.016;2023-06-22T15:00:12;4.63;;;2.63;;
25359;SDS011;13311;51.386;0.016;2023-06-22T15:05:13;2.90;;;2.70;;
25359;SDS011;13311;51.386;0.016;2023-06-22T15:10:14;3.40;;;2.70;;
25359;SDS011;13311;51.386;0.016;2023-06-22T15:15:15;3.10;;;2.58;;
25359;SDS011;13311;51.386;0.016;2023-06-22T15:20:16;4.18;;;2.72;;
25359;SDS011;13311;51.386;0.016;2023-06-22T15:25:17;3.05;;;2.40;;
25359;SDS011;13311;51.386;0.016;2023-06-22T15:30:17;5.25;;;3.08;;
25359;SDS011;13311;51.386;0.016;2023-06-22T15:35:18;4.18;;;2.80;;
25359;SDS011;13311;51.386;0.016;2023-06-22T15:40:19;3.53;;;2.30;;
25359;SDS011;13311;51.386;0.016;2023-06-22T15:45:20;6.70;;;2.95;;
25359;SDS011;13311;51.386;0.016;2023-06-22T15:50:20;4.30;;;3.08;;
25359;SDS011;13311;51.386;0.016;2023-06-22T15:55:21;2.85;;;2.50;;
25359;SDS011;13311;51.386;0.016;2023-06-22T16:00:22;3.13;;;2.35;;
25359;SDS011;13311;51.386;0.016;2023-06-22T16:05:23;3.20;;;2.90;;
25359;SDS011;13311;51.386;0.016;2023-06-22T16:10:24;2.65;;;2.28;;
25359;SDS011;13311;51.386;0.016;2023-06-22T16:15:25;3.28;;;2.55;;
25359;SDS011;13311;51.386;0.016;2023-06-22T16:20:25;3.05;;;2.75;;
25359;SDS011;13311;51.386;0.016;2023-06-22T16:25:26;3.97;;;2.92;;
25359;SDS011;13311;51.386;0.016;2023-06-22T16:30:27;3.10;;;2.88;;
25359;SDS011;13311;51.386;0.016;2023-06-22T16:35:28;3.72;;;3.03;;
25359;SDS011;13311;51.386;0.016;2023-06-22T16:40:29;3.03;;;2.70;;
25359;SDS011;13311;51.386;0.016;2023-06-22T16:45:30;5.22;;;3.25;;
25359;SDS011;13311;51.386;0.016;2023-06-22T16:50:32;5.45;;;3.25;;
25359;SDS011;13311;51.386;0.016;2023-06-22T16:55:33;4.30;;;2.60;;
25359;SDS011;13311;51.386;0.016;2023-06-22T17:00:36;3.92;;;3.17;;
25359;SDS011;13311;51.386;0.016;2023-06-22T17:05:37;3.53;;;3.13;;
25359;SDS011;13311;51.386;0.016;2023-06-22T17:10:38;4.50;;;3.10;;
25359;SDS011;13311;51.386;0.016;2023-06-22T17:15:40;5.10;;;3.33;;
25359;SDS011;13311;51.386;0.016;2023-06-22T17:20:42;3.05;;;2.75;;
25359;SDS011;13311;51.386;0.016;2023-06-22T17:25:43;5.10;;;2.30;;
25359;SDS011;13311;51.386;0.016;2023-06-22T17:30:46;4.65;;;2.10;;
25359;SDS011;13311;51.386;0.016;2023-06-22T17:36:11;7.85;;;2.60;;
25359;SDS011;13311;51.386;0.016;2023-06-22T17:41:15;3.08;;;1.73;;
25359;SDS011;13311;51.386;0.016;2023-06-22T17:46:16;8.90;;;2.08;;
25359;SDS011;13311;51.386;0.016;2023-06-22T17:51:17;9.18;;;2.38;;
25359;SDS011;13311;51.386;0.016;2023-06-22T17:56:18;6.05;;;2.40;;
25359;SDS011;13311;51.386;0.016;2023-06-22T18:06:38;3.33;;;2.15;;
25359;SDS011;13311;51.386;0.016;2023-06-22T18:11:44;3.63;;;2.78;;
25359;SDS011;13311;51.386;0.016;2023-06-22T18:16:48;2.55;;;1.95;;
25359;SDS011;13311;51.386;0.016;2023-06-22T18:21:50;5.15;;;2.30;;
25359;SDS011;13311;51.386;0.016;2023-06-22T18:26:52;3.28;;;2.28;;
25359;SDS011;13311;51.386;0.016;2023-06-22T18:31:54;2.67;;;2.10;;
25359;SDS011;13311;51.386;0.016;2023-06-22T18:36:56;3.25;;;2.00;;
25359;SDS011;13311;51.386;0.016;2023-06-22T18:41:59;6.93;;;3.27;;
25359;SDS011;13311;51.386;0.016;2023-06-22T18:47:03;5.32;;;2.08;;
25359;SDS011;13311;51.386;0.016;2023-06-22T18:52:11;6.22;;;2.30;;
25359;SDS011;13311;51.386;0.016;2023-06-22T19:07:57;2.78;;;2.00;;
25359;SDS011;13311;51.386;0.016;2023-06-22T19:18:28;3.03;;;2.20;;
25359;SDS011;13311;51.386;0.016;2023-06-22T19:23:40;2.30;;;2.10;;
25359;SDS011;13311;51.386;0.016;2023-06-22T19:33:45;5.13;;;2.45;;
25359;SDS011;13311;51.386;0.016;2023-06-22T19:38:46;3.15;;;2.50;;
25359;SDS011;13311;51.386;0.016;2023-06-22T19:43:48;2.35;;;2.00;;
25359;SDS011;13311;51.386;0.016;2023-06-22T19:48:49;3.60;;;2.60;;
25359;SDS011;13311;51.386;0.016;2023-06-22T19:53:50;3.17;;;2.35;;
25359;SDS011;13311;51.386;0.016;2023-06-22T19:58:51;6.57;;;2.60;;
25359;SDS011;13311;51.386;0.016;2023-06-22T20:03:55;4.03;;;2.60;;
25359;SDS011;13311;51.386;0.016;2023-06-22T20:08:55;5.90;;;4.22;;
25359;SDS011;13311;51.386;0.016;2023-06-22T20:14:02;7.82;;;4.75;;
25359;SDS011;13311;51.386;0.016;2023-06-22T20:19:06;6.30;;;3.42;;
25359;SDS011;13311;51.386;0.016;2023-06-22T20:29:31;6.18;;;3.00;;
25359;SDS011;13311;51.386;0.016;2023-06-22T20:34:40;7.55;;;3.33;;
25359;SDS011;13311;51.386;0.016;2023-06-22T20:39:46;4.18;;;3.00;;
25359;SDS011;13311;51.386;0.016;2023-06-22T20:44:47;7.35;;;4.00;;
25359;SDS011;13311;51.386;0.016;2023-06-22T20:49:49;5.50;;;3.22;;
25359;SDS011;13311;51.386;0.016;2023-06-22T20:54:50;5.43;;;3.03;;
25359;SDS011;13311;51.386;0.016;2023-06-22T20:59:52;6.05;;;3.58;;
25359;SDS011;13311;51.386;0.016;2023-06-22T21:04:53;7.03;;;3.38;;
25359;SDS011;13311;51.386;0.016;2023-06-22T21:09:54;4.25;;;3.08;;
25359;SDS011;13311;51.386;0.016;2023-06-22T21:14:55;5.25;;;3.42;;
25359;SDS011;13311;51.386;0.016;2023-06-22T21:19:56;3.97;;;3.38;;
25359;SDS011;13311;51.386;0.016;2023-06-22T21:25:13;8.75;;;3.92;;
25359;SDS011;13311;51.386;0.016;2023-06-22T21:30:15;5.70;;;3.95;;
25359;SDS011;13311;51.386;0.016;2023-06-22T21:35:15;4.80;;;3.22;;
25359;SDS011;13311;51.386;0.016;2023-06-22T21:40:16;4.68;;;3.50;;
25359;SDS011;13311;51.386;0.016;2023-06-22T21:45:17;5.57;;;3.55;;
25359;SDS011;13311;51.386;0.016;2023-06-22T21:50:19;6.53;;;3.38;;
25359;SDS011;13311;51.386;0.016;2023-06-22T21:55:20;8.02;;;3.28;;
25359;SDS011;13311;51.386;0.016;2023-06-22T22:00:20;5.07;;;3.45;;
25359;SDS011;13311;51.386;0.016;2023-06-22T22:05:21;5.38;;;3.00;;
25359;SDS011;13311;51.386;0.016;2023-06-22T22:10:22;4.57;;;3.55;;
25359;SDS011;13311;51.386;0.016;2023-06-22T22:15:23;5.13;;;3.38;;
25359;SDS011;13311;51.386;0.016;2023-06-22T22:20:24;7.13;;;3.92;;
25359;SDS011;13311;51.386;0.016;2023-06-22T22:25:24;4.20;;;3.22;;
25359;SDS011;13311;51.386;0.016;2023-06-22T22:30:26;5.93;;;4.10;;
25359;SDS011;13311;51.386;0.016;2023-06-22T22:35:27;5.25;;;3.80;;
25359;SDS011;13311;51.386;0.016;2023-06-22T22:40:28;5.32;;;3.50;;
25359;SDS011;13311;51.386;0.016;2023-06-22T22:45:28;5.70;;;3.75;;
25359;SDS011;13311;51.386;0.016;2023-06-22T22:50:29;6.93;;;3.78;;
25359;SDS011;13311;51.386;0.016;2023-06-22T22:55:30;6.75;;;3.50;;
25359;SDS011;13311;51.386;0.016;2023-06-22T23:00:31;5.47;;;3.60;;
25359;SDS011;13311;51.386;0.016;2023-06-22T23:05:32;6.25;;;4.50;;
25359;SDS011;13311;51.386;0.016;2023-06-22T23:10:34;6.45;;;4.15;;
25359;SDS011;13311;51.386;0.016;2023-06-22T23:15:35;5.25;;;4.00;;
25359;SDS011;13311;51.386;0.016;2023-06-22T23:20:36;7.05;;;3.95;;
25359;SDS011;13311;51.386;0.016;2023-06-22T23:25:37;4.95;;;3.80;;
25359;SDS011;13311;51.386;0.016;2023-06-22T23:30:38;6.38;;;4.40;;
25359;SDS011;13311;51.386;0.016;2023-06-22T23:35:39;11.07;;;4.07;;
25359;SDS011;13311;51.386;0.016;2023-06-22T23:40:40;8.68;;;4.07;;
25359;SDS011;13311;51.386;0.016;2023-06-22T23:45:41;10.90;;;3.95;;
25359;SDS011;13311;51.386;0.016;2023-06-22T23:50:41;6.35;;;4.38;;
25359;SDS011;13311;51.386;0.016;2023-06-22T23:55:42;4.97;;;3.85;;
